Time;durP1;ratioP1;P1;durP2;ratioP2;P2;SDS_P1;SDS_P2;PMS_P1;PMS_P2;Temp;Humidity;BMP_temperature;BMP_pressure;BME280_temperature;BME280_humidity;BME280_pressure;Samples;Min_cycle;Max_cycle;Signal;HPM_P1;HPM_P2
2022/08/31 00:06:06;;;;;;;0.55;0.38;;;14.00;99.90;;;;;;5015664;28;20080;-80
2022/08/31 00:08:32;;;;;;;0.65;0.47;;;14.00;99.90;;;;;;5000371;28;20439;-80
2022/08/31 00:10:58;;;;;;;0.80;0.60;;;13.90;99.90;;;;;;4990603;28;20688;-80
2022/08/31 00:13:26;;;;;;;2.13;0.60;;;13.90;99.90;;;;;;4997657;28;20046;-80
2022/08/31 00:15:53;;;;;;;0.80;0.50;;;13.90;99.90;;;;;;5016614;28;20029;-80
2022/08/31 00:18:20;;;;;;;2.55;0.63;;;13.80;99.90;;;;;;5016954;28;20037;-80
2022/08/31 00:20:46;;;;;;;0.52;0.32;;;14.60;99.90;;;;;;4999657;28;20033;-80
2022/08/31 00:23:14;;;;;;;2.17;0.50;;;13.70;99.90;;;;;;5015463;28;20052;-80
2022/08/31 00:25:42;;;;;;;0.30;0.30;;;13.80;99.90;;;;;;5015993;28;20037;-80
2022/08/31 00:28:09;;;;;;;0.52;0.30;;;13.70;99.90;;;;;;5015407;28;20409;-80
2022/08/31 00:30:36;;;;;;;0.47;0.20;;;13.70;99.90;;;;;;4996061;28;20038;-80
2022/08/31 00:33:02;;;;;;;1.33;0.30;;;13.70;99.90;;;;;;5013066;28;20065;-80
2022/08/31 00:35:30;;;;;;;0.43;0.30;;;13.60;99.90;;;;;;5000000;28;20037;-80
2022/08/31 00:37:56;;;;;;;0.80;0.68;;;13.50;99.90;;;;;;4999488;28;20041;-80
2022/08/31 00:40:22;;;;;;;0.47;0.40;;;13.50;99.90;;;;;;4995268;28;20042;-80
2022/08/31 00:42:48;;;;;;;0.32;0.32;;;13.40;99.90;;;;;;5015440;28;20048;-80
2022/08/31 00:45:14;;;;;;;1.02;0.57;;;13.40;99.90;;;;;;4999437;28;20046;-80
2022/08/31 00:47:40;;;;;;;0.30;0.30;;;13.40;99.90;;;;;;5015562;28;20174;-80
2022/08/31 00:50:09;;;;;;;0.75;0.38;;;13.40;99.90;;;;;;5012026;28;20034;-80
2022/08/31 00:52:38;;;;;;;2.25;1.27;;;13.40;99.90;;;;;;4998949;28;20052;-80
2022/08/31 00:55:32;;;;;;;0.32;0.32;;;13.30;99.90;;;;;;5015826;28;20033;-81
2022/08/31 00:58:03;;;;;;;0.77;0.45;;;13.30;99.90;;;;;;5013519;28;20042;-81
2022/08/31 01:00:29;;;;;;;0.20;0.20;;;13.20;99.90;;;;;;4996087;28;20172;-80
2022/08/31 01:02:58;;;;;;;2.67;0.50;;;13.20;99.90;;;;;;5010619;28;20037;-81
2022/08/31 01:05:24;;;;;;;1.15;0.43;;;13.20;99.90;;;;;;5015575;28;20052;-81
2022/08/31 01:07:52;;;;;;;1.08;0.60;;;13.20;99.90;;;;;;5015153;28;20041;-81
2022/08/31 01:10:21;;;;;;;1.23;0.40;;;13.20;99.90;;;;;;5015421;28;20120;-81
2022/08/31 01:12:47;;;;;;;0.88;0.40;;;13.20;99.90;;;;;;5012764;28;20128;-81
2022/08/31 01:15:15;;;;;;;0.47;0.30;;;13.30;99.90;;;;;;5016994;28;20037;-81
2022/08/31 01:17:42;;;;;;;0.80;0.45;;;13.30;99.90;;;;;;4999344;28;20377;-81
2022/08/31 01:20:17;;;;;;;0.20;0.20;;;13.30;99.90;;;;;;5014549;28;20045;-81
2022/08/31 01:22:50;;;;;;;1.95;0.55;;;13.40;99.90;;;;;;5013837;28;20053;-81
2022/08/31 01:25:17;;;;;;;0.50;0.30;;;13.40;99.90;;;;;;5012559;28;20479;-81
2022/08/31 01:27:43;;;;;;;0.30;0.30;;;13.50;99.90;;;;;;4998012;28;20487;-81
2022/08/31 01:30:12;;;;;;;0.65;0.50;;;13.50;99.90;;;;;;5014936;28;20053;-81
2022/08/31 01:32:39;;;;;;;1.08;0.40;;;13.60;99.90;;;;;;5014836;28;20042;-80
2022/08/31 01:35:06;;;;;;;0.75;0.47;;;13.60;99.90;;;;;;5014467;28;20044;-80
2022/08/31 01:37:32;;;;;;;0.60;0.35;;;13.60;99.90;;;;;;5015139;28;20479;-80
2022/08/31 01:39:59;;;;;;;0.43;0.35;;;13.60;99.90;;;;;;5014300;28;20057;-80
2022/08/31 01:42:24;;;;;;;0.30;0.30;;;13.60;99.90;;;;;;4982077;28;20049;-80
2022/08/31 01:44:50;;;;;;;0.40;0.35;;;13.50;99.90;;;;;;4981977;28;20521;-80
2022/08/31 01:47:16;;;;;;;0.60;0.50;;;13.50;99.90;;;;;;5015116;28;20045;-80
2022/08/31 01:49:41;;;;;;;0.32;0.30;;;13.50;99.90;;;;;;5015117;28;20041;-80
2022/08/31 01:52:07;;;;;;;2.47;0.55;;;13.40;99.90;;;;;;5015017;28;20033;-80
2022/08/31 01:54:33;;;;;;;0.50;0.40;;;13.40;99.90;;;;;;5014389;28;20064;-80
2022/08/31 01:57:00;;;;;;;0.55;0.40;;;13.30;99.90;;;;;;5014449;28;20045;-80
2022/08/31 01:59:27;;;;;;;0.47;0.35;;;13.30;99.90;;;;;;5015047;28;20077;-80
2022/08/31 02:01:54;;;;;;;0.85;0.43;;;13.20;99.90;;;;;;4998432;28;20045;-81
2022/08/31 02:04:23;;;;;;;0.45;0.30;;;13.10;99.90;;;;;;4998314;28;20033;-81
2022/08/31 02:06:51;;;;;;;0.80;0.52;;;13.10;99.90;;;;;;4998135;28;20053;-81
2022/08/31 02:09:18;;;;;;;0.43;0.40;;;13.00;99.90;;;;;;5014550;28;20102;-80
2022/08/31 02:11:44;;;;;;;0.63;0.40;;;12.90;99.90;;;;;;5014501;28;20044;-80
2022/08/31 02:14:10;;;;;;;0.30;0.20;;;12.80;99.90;;;;;;5004757;28;20049;-81
2022/08/31 02:16:37;;;;;;;0.60;0.40;;;12.80;99.90;;;;;;4994330;28;20125;-81
2022/08/31 02:19:03;;;;;;;0.60;0.40;;;12.70;99.90;;;;;;5012403;28;20052;-81
2022/08/31 02:21:29;;;;;;;0.70;0.40;;;12.70;99.90;;;;;;5014377;28;20690;-81
2022/08/31 02:23:55;;;;;;;0.30;0.20;;;12.60;99.90;;;;;;4998435;28;20048;-81
2022/08/31 02:26:21;;;;;;;0.85;0.40;;;12.50;99.90;;;;;;5013372;28;20049;-81
2022/08/31 02:28:47;;;;;;;0.63;0.30;;;12.50;99.90;;;;;;5014568;28;20034;-81
2022/08/31 02:31:13;;;;;;;0.75;0.50;;;12.40;99.90;;;;;;4997579;28;20556;-81
2022/08/31 02:33:39;;;;;;;0.43;0.30;;;12.40;99.90;;;;;;4998279;28;20127;-81
2022/08/31 02:36:05;;;;;;;0.70;0.40;;;12.30;99.90;;;;;;4997743;28;20155;-81
2022/08/31 02:38:33;;;;;;;0.50;0.32;;;12.30;99.90;;;;;;5014439;28;20488;-81
2022/08/31 02:40:59;;;;;;;0.30;0.17;;;12.20;99.90;;;;;;4998951;28;20399;-81
2022/08/31 02:43:25;;;;;;;1.27;0.50;;;12.10;99.90;;;;;;5014583;28;20139;-81
2022/08/31 02:45:52;;;;;;;0.68;0.30;;;12.10;99.90;;;;;;4998728;28;20443;-81
2022/08/31 02:48:17;;;;;;;0.28;0.20;;;12.10;99.90;;;;;;4997216;28;20136;-81
2022/08/31 02:50:46;;;;;;;0.40;0.25;;;12.00;99.90;;;;;;5015668;28;20128;-81
2022/08/31 02:53:14;;;;;;;0.47;0.47;;;12.00;99.90;;;;;;5018023;28;20045;-81
2022/08/31 02:55:41;;;;;;;1.70;0.30;;;11.90;99.90;;;;;;5018173;28;20057;-80
2022/08/31 02:58:08;;;;;;;0.45;0.43;;;11.90;99.90;;;;;;5016926;28;20040;-80
2022/08/31 03:00:34;;;;;;;0.50;0.25;;;11.90;99.90;;;;;;5018061;28;20096;-80
2022/08/31 03:03:00;;;;;;;0.47;0.40;;;11.80;99.90;;;;;;5001368;28;20038;-80
2022/08/31 03:05:26;;;;;;;0.75;0.35;;;11.80;99.90;;;;;;5001798;28;20042;-80
2022/08/31 03:07:52;;;;;;;0.57;0.25;;;11.80;99.90;;;;;;5017077;28;20103;-81
2022/08/31 03:10:20;;;;;;;0.30;0.30;;;11.70;99.90;;;;;;5017867;28;20070;-81
2022/08/31 03:12:48;;;;;;;0.20;0.20;;;11.70;99.90;;;;;;5001433;28;20049;-81
2022/08/31 03:15:15;;;;;;;0.65;0.50;;;11.60;99.90;;;;;;5003047;28;20056;-81
2022/08/31 03:17:41;;;;;;;0.52;0.35;;;11.60;99.90;;;;;;5000678;28;20040;-81
2022/08/31 03:20:08;;;;;;;0.60;0.40;;;11.50;99.90;;;;;;5017366;28;20041;-81
2022/08/31 03:22:34;;;;;;;0.75;0.60;;;11.50;99.90;;;;;;4997634;28;20488;-81
2022/08/31 03:25:00;;;;;;;0.45;0.40;;;11.50;99.90;;;;;;5014885;28;20507;-80
2022/08/31 03:27:29;;;;;;;0.85;0.68;;;11.50;99.90;;;;;;4996951;28;20045;-80
2022/08/31 03:29:55;;;;;;;0.85;0.55;;;11.40;99.90;;;;;;4981036;28;20125;-80
2022/08/31 03:32:21;;;;;;;1.40;0.57;;;11.40;99.90;;;;;;5013898;28;20041;-80
2022/08/31 03:34:47;;;;;;;0.90;0.60;;;11.30;99.90;;;;;;4981560;28;20034;-80
2022/08/31 03:37:13;;;;;;;0.47;0.47;;;11.30;99.90;;;;;;5013983;28;20049;-80
2022/08/31 03:39:38;;;;;;;2.33;0.50;;;11.30;99.90;;;;;;4995273;28;20048;-80
2022/08/31 03:42:07;;;;;;;0.50;0.50;;;11.30;99.90;;;;;;4997921;28;20045;-80
2022/08/31 03:44:33;;;;;;;1.35;0.52;;;11.20;99.90;;;;;;4993372;28;20049;-80
2022/08/31 03:46:59;;;;;;;0.98;0.60;;;11.20;99.90;;;;;;5016967;28;20045;-80
2022/08/31 03:49:25;;;;;;;0.43;0.40;;;11.20;99.90;;;;;;4996862;28;20038;-80
2022/08/31 03:51:52;;;;;;;0.20;0.17;;;11.20;99.90;;;;;;5013739;28;20042;-79
2022/08/31 03:54:18;;;;;;;0.50;0.43;;;11.10;99.90;;;;;;5013173;28;20096;-80
2022/08/31 03:56:45;;;;;;;1.13;0.60;;;11.10;99.90;;;;;;4996967;28;20045;-80
2022/08/31 03:59:11;;;;;;;1.23;0.60;;;11.10;99.90;;;;;;5013068;28;20069;-81
2022/08/31 04:01:37;;;;;;;1.00;0.55;;;11.00;99.90;;;;;;5012412;28;20058;-81
2022/08/31 04:04:03;;;;;;;0.75;0.60;;;11.00;99.90;;;;;;5013027;28;20073;-81
2022/08/31 04:06:30;;;;;;;0.70;0.45;;;11.00;99.90;;;;;;4996842;28;20068;-81
2022/08/31 04:08:55;;;;;;;1.15;0.30;;;10.90;99.90;;;;;;5012841;28;20507;-81
2022/08/31 04:11:22;;;;;;;0.50;0.40;;;10.90;99.90;;;;;;5012160;28;20041;-81
2022/08/31 04:13:48;;;;;;;1.10;0.63;;;10.90;99.90;;;;;;4996874;28;20042;-80
2022/08/31 04:16:17;;;;;;;0.75;0.47;;;10.80;99.90;;;;;;4997990;28;20045;-80
2022/08/31 04:18:45;;;;;;;0.55;0.45;;;10.80;99.90;;;;;;4997188;28;20435;-80
2022/08/31 04:21:23;;;;;;;0.40;0.40;;;10.70;99.90;;;;;;5008858;28;20563;-80
2022/08/31 04:23:50;;;;;;;0.80;0.50;;;10.70;99.90;;;;;;4999370;28;20077;-80
2022/08/31 04:26:21;;;;;;;0.50;0.30;;;10.70;99.90;;;;;;4999528;28;20049;-81
2022/08/31 04:28:47;;;;;;;0.43;0.35;;;10.70;99.90;;;;;;5016366;28;20392;-80
2022/08/31 04:31:14;;;;;;;0.38;0.38;;;10.70;99.90;;;;;;5016050;28;20493;-80
2022/08/31 04:33:41;;;;;;;0.88;0.50;;;10.60;99.90;;;;;;5015643;28;20484;-80
2022/08/31 04:36:09;;;;;;;1.65;0.70;;;10.60;99.90;;;;;;5000022;28;20080;-80
2022/08/31 04:38:35;;;;;;;0.13;0.13;;;10.60;99.90;;;;;;5012262;28;20519;-80
2022/08/31 04:41:08;;;;;;;0.40;0.40;;;10.60;99.90;;;;;;5008762;28;20040;-80
2022/08/31 04:43:34;;;;;;;0.45;0.43;;;10.60;99.90;;;;;;4983113;28;20539;-79
2022/08/31 04:46:02;;;;;;;0.90;0.50;;;10.60;99.90;;;;;;5016220;28;20124;-80
2022/08/31 04:48:28;;;;;;;0.80;0.40;;;10.60;99.90;;;;;;5016199;28;20058;-80
2022/08/31 04:51:10;;;;;;;0.28;0.20;;;10.60;99.90;;;;;;5004100;28;20037;-80
2022/08/31 04:53:36;;;;;;;3.15;0.65;;;10.60;99.90;;;;;;4996005;28;20095;-80
2022/08/31 04:56:06;;;;;;;1.60;0.63;;;10.70;99.90;;;;;;4999833;28;20037;-80
2022/08/31 04:58:32;;;;;;;2.03;0.80;;;10.60;99.90;;;;;;4999425;28;20053;-81
2022/08/31 05:00:58;;;;;;;1.23;0.63;;;10.60;99.90;;;;;;5015908;28;20042;-80
2022/08/31 05:03:24;;;;;;;1.52;0.40;;;10.70;99.90;;;;;;5011262;28;20041;-80
2022/08/31 05:05:51;;;;;;;0.60;0.45;;;10.60;99.90;;;;;;4999103;28;20419;-80
2022/08/31 05:08:18;;;;;;;0.65;0.55;;;10.70;99.90;;;;;;4999735;28;20045;-80
2022/08/31 05:10:44;;;;;;;2.30;0.77;;;10.70;99.90;;;;;;5015263;28;20104;-80
2022/08/31 05:13:11;;;;;;;0.32;0.30;;;10.70;99.90;;;;;;4988368;28;20044;-80
2022/08/31 05:15:43;;;;;;;0.55;0.47;;;10.70;99.90;;;;;;5000577;28;20038;-80
2022/08/31 05:18:10;;;;;;;0.68;0.60;;;10.70;99.90;;;;;;5015745;28;20087;-80
2022/08/31 05:20:37;;;;;;;0.70;0.57;;;10.70;99.90;;;;;;5015058;28;20041;-80
2022/08/31 05:23:03;;;;;;;0.40;0.30;;;10.70;99.90;;;;;;4998455;28;20058;-80
2022/08/31 05:25:28;;;;;;;0.40;0.40;;;10.80;99.90;;;;;;4981987;28;20044;-80
2022/08/31 05:27:55;;;;;;;0.65;0.35;;;10.80;99.90;;;;;;5004633;28;20080;-80
2022/08/31 05:30:21;;;;;;;1.08;0.52;;;10.90;99.90;;;;;;5012551;28;20073;-80
2022/08/31 05:32:47;;;;;;;0.40;0.40;;;10.90;99.90;;;;;;5015156;28;20045;-80
2022/08/31 05:35:13;;;;;;;0.57;0.35;;;11.00;99.90;;;;;;4999057;28;20056;-80
2022/08/31 05:37:39;;;;;;;0.95;0.57;;;11.20;99.90;;;;;;5014809;28;20046;-80
2022/08/31 05:40:06;;;;;;;0.52;0.40;;;11.10;99.90;;;;;;5014960;28;20045;-80
2022/08/31 05:42:32;;;;;;;0.55;0.40;;;11.10;99.90;;;;;;5014469;28;20430;-80
2022/08/31 05:44:58;;;;;;;0.80;0.52;;;11.20;99.90;;;;;;5015077;28;20137;-80
2022/08/31 05:47:23;;;;;;;0.35;0.35;;;11.30;99.90;;;;;;5014851;28;20130;-80
2022/08/31 05:49:49;;;;;;;0.68;0.68;;;11.40;99.90;;;;;;5014441;28;20060;-80
2022/08/31 05:52:15;;;;;;;1.10;0.68;;;11.50;99.90;;;;;;5015361;28;20048;-80
2022/08/31 05:54:41;;;;;;;0.77;0.50;;;11.50;99.90;;;;;;5015179;28;20234;-81
2022/08/31 05:57:07;;;;;;;0.77;0.43;;;11.80;99.90;;;;;;5015377;28;20376;-84
2022/08/31 05:59:34;;;;;;;0.90;0.68;;;11.80;99.90;;;;;;4998744;28;20128;-85
2022/08/31 06:02:01;;;;;;;0.28;0.25;;;11.90;99.90;;;;;;5015118;28;20124;-85
2022/08/31 06:04:27;;;;;;;0.95;0.60;;;12.00;99.90;;;;;;4998990;28;20391;-84
2022/08/31 06:06:53;;;;;;;0.80;0.75;;;12.10;99.90;;;;;;4998280;28;20042;-84
2022/08/31 06:09:22;;;;;;;0.70;0.50;;;12.20;99.90;;;;;;5015132;28;20133;-85
2022/08/31 06:11:48;;;;;;;0.40;0.35;;;12.40;99.90;;;;;;5014165;28;20112;-81
2022/08/31 06:14:13;;;;;;;1.50;0.55;;;12.50;99.90;;;;;;5015351;28;20172;-81
2022/08/31 06:16:42;;;;;;;2.45;0.85;;;12.70;99.90;;;;;;5014784;28;20399;-81
2022/08/31 06:19:08;;;;;;;0.88;0.70;;;12.90;99.90;;;;;;5010321;28;20081;-80
2022/08/31 06:21:38;;;;;;;2.25;1.17;;;13.30;99.90;;;;;;5013539;28;20139;-80
2022/08/31 06:24:05;;;;;;;1.55;0.85;;;14.70;99.90;;;;;;5013211;28;20053;-80
2022/08/31 06:26:33;;;;;;;1.35;0.90;;;15.80;99.90;;;;;;4995036;28;20077;-80
2022/08/31 06:29:03;;;;;;;1.15;0.82;;;16.60;99.90;;;;;;5013983;28;20038;-79
2022/08/31 06:31:46;;;;;;;1.95;1.00;;;18.70;99.90;;;;;;5002184;28;20107;-79
2022/08/31 06:34:13;;;;;;;0.88;0.55;;;20.50;99.90;;;;;;5018460;28;20041;-79
2022/08/31 06:36:39;;;;;;;0.90;0.60;;;22.10;99.00;;;;;;5017303;28;20033;-80
2022/08/31 06:39:05;;;;;;;2.38;0.57;;;23.50;96.00;;;;;;5009105;28;20112;-80
2022/08/31 06:41:34;;;;;;;0.80;0.50;;;24.30;93.30;;;;;;5002093;28;20049;-80
2022/08/31 06:44:01;;;;;;;1.05;0.60;;;24.90;91.70;;;;;;4997563;28;20042;-80
2022/08/31 06:46:28;;;;;;;0.95;0.68;;;25.70;90.30;;;;;;5016750;28;20376;-80
2022/08/31 06:48:56;;;;;;;0.90;0.57;;;26.40;90.70;;;;;;5017161;28;20507;-80
2022/08/31 06:51:23;;;;;;;1.55;0.77;;;27.00;87.70;;;;;;5017842;28;20491;-80
2022/08/31 06:53:49;;;;;;;1.75;0.57;;;27.60;86.10;;;;;;5017811;28;20049;-80
2022/08/31 06:56:26;;;;;;;0.77;0.50;;;27.90;84.20;;;;;;5017483;28;20060;-80
2022/08/31 06:58:53;;;;;;;0.73;0.40;;;28.40;83.20;;;;;;5020353;28;20438;-80
2022/08/31 07:01:21;;;;;;;0.75;0.52;;;28.50;80.90;;;;;;5016828;28;20136;-80
2022/08/31 07:03:49;;;;;;;0.82;0.50;;;29.00;80.40;;;;;;5013384;28;20037;-80
2022/08/31 07:06:20;;;;;;;1.50;0.20;;;29.50;78.50;;;;;;5014922;28;20117;-80
2022/08/31 07:08:53;;;;;;;3.22;0.60;;;29.60;77.60;;;;;;5017549;28;20044;-80
2022/08/31 07:11:23;;;;;;;2.28;0.63;;;29.30;75.60;;;;;;5016338;28;20496;-80
2022/08/31 07:13:50;;;;;;;0.40;0.40;;;29.50;75.50;;;;;;4998284;28;20045;-80
2022/08/31 07:16:19;;;;;;;0.75;0.50;;;29.50;73.80;;;;;;5017986;28;20514;-80
2022/08/31 07:18:46;;;;;;;0.77;0.52;;;29.40;75.30;;;;;;5017238;28;20049;-80
2022/08/31 07:21:15;;;;;;;0.65;0.50;;;29.60;73.20;;;;;;5006069;28;20088;-80
2022/08/31 07:23:42;;;;;;;0.55;0.40;;;29.60;73.80;;;;;;5017156;28;20037;-80
2022/08/31 07:26:13;;;;;;;1.17;0.47;;;29.80;74.20;;;;;;5016602;28;20034;-80
2022/08/31 07:28:42;;;;;;;1.40;0.30;;;29.80;75.10;;;;;;5017158;28;20060;-80
2022/08/31 07:31:09;;;;;;;1.65;0.40;;;30.80;74.00;;;;;;5000126;28;20044;-80
2022/08/31 07:33:39;;;;;;;0.22;0.20;;;31.40;71.60;;;;;;4997692;28;20045;-81
2022/08/31 07:36:08;;;;;;;1.98;0.73;;;31.30;70.00;;;;;;5021307;28;20376;-80
2022/08/31 07:44:02;;;;;;;2.08;0.30;;;31.00;70.20;;;;;;4994420;28;20117;-80
2022/08/31 07:46:30;;;;;;;0.50;0.40;;;30.90;70.70;;;;;;5010904;28;20572;-80
2022/08/31 07:48:59;;;;;;;1.15;0.30;;;30.70;71.00;;;;;;4980911;28;20500;-81
2022/08/31 07:51:26;;;;;;;2.30;0.30;;;30.70;69.80;;;;;;4999757;28;20045;-82
2022/08/31 07:53:53;;;;;;;0.50;0.30;;;29.80;70.00;;;;;;5015051;28;20048;-82
2022/08/31 07:56:20;;;;;;;0.52;0.50;;;30.30;69.70;;;;;;5017318;28;20041;-81
2022/08/31 07:58:49;;;;;;;0.20;0.20;;;30.00;69.90;;;;;;5017026;28;20049;-82
2022/08/31 08:01:16;;;;;;;0.30;0.30;;;31.00;69.90;;;;;;5011196;28;20471;-82
2022/08/31 08:03:43;;;;;;;2.33;0.82;;;30.50;70.00;;;;;;5014577;28;20116;-82
2022/08/31 08:06:14;;;;;;;0.75;0.43;;;30.90;69.70;;;;;;5017049;28;20198;-82
2022/08/31 08:08:44;;;;;;;1.45;0.80;;;30.40;69.40;;;;;;5015653;28;20065;-84
2022/08/31 08:11:17;;;;;;;1.00;0.32;;;29.90;69.50;;;;;;5014707;28;20033;-84
2022/08/31 08:13:43;;;;;;;0.28;0.28;;;29.70;70.10;;;;;;5014853;28;20102;-84
2022/08/31 08:16:10;;;;;;;0.30;0.30;;;30.40;70.30;;;;;;5000419;28;20034;-84
2022/08/31 08:18:36;;;;;;;0.47;0.20;;;30.80;70.40;;;;;;5006870;28;20034;-85
2022/08/31 08:21:02;;;;;;;1.13;0.43;;;31.10;70.20;;;;;;5000189;28;20167;-85
2022/08/31 08:23:28;;;;;;;1.17;0.30;;;29.80;69.40;;;;;;5015968;28;20053;-82
2022/08/31 08:25:55;;;;;;;2.05;0.63;;;30.60;68.80;;;;;;5015583;28;20139;-82
2022/08/31 08:28:20;;;;;;;0.95;0.50;;;30.80;69.60;;;;;;5011860;28;20061;-82
2022/08/31 08:30:49;;;;;;;0.77;0.45;;;31.00;70.00;;;;;;5016210;28;20472;-80
2022/08/31 08:33:16;;;;;;;0.75;0.40;;;31.30;67.80;;;;;;5014469;28;20049;-80
2022/08/31 08:35:43;;;;;;;1.23;0.52;;;31.90;67.30;;;;;;5015621;28;20045;-80
2022/08/31 08:38:08;;;;;;;0.43;0.40;;;31.90;67.00;;;;;;5012406;23;20057;-80
2022/08/31 08:40:43;;;;;;;0.60;0.50;;;31.50;66.20;;;;;;5010712;28;20068;-82
2022/08/31 08:43:14;;;;;;;0.70;0.40;;;31.10;67.30;;;;;;5025047;28;20404;-82
2022/08/31 08:45:42;;;;;;;0.30;0.30;;;30.80;67.40;;;;;;5024219;28;20598;-82
2022/08/31 08:48:12;;;;;;;1.83;0.70;;;30.30;67.60;;;;;;5029205;28;20048;-82
2022/08/31 08:50:40;;;;;;;0.30;0.30;;;30.30;67.10;;;;;;5025941;28;20059;-82
2022/08/31 08:53:09;;;;;;;1.08;0.40;;;30.30;66.50;;;;;;5009133;28;20045;-82
2022/08/31 08:55:37;;;;;;;1.15;0.47;;;30.80;66.70;;;;;;5025516;28;20041;-82
2022/08/31 08:58:12;;;;;;;1.38;0.38;;;29.50;67.70;;;;;;5018247;28;20096;-82
2022/08/31 09:00:41;;;;;;;0.28;0.20;;;29.60;68.50;;;;;;5027487;28;20076;-82
2022/08/31 09:03:52;;;;;;;1.15;0.40;;;30.10;67.80;;;;;;4989304;28;20073;-82
2022/08/31 09:06:52;;;;;;;0.75;0.40;;;29.60;67.10;;;;;;5024993;28;20073;-82
2022/08/31 09:09:33;;;;;;;0.47;0.43;;;29.10;68.60;;;;;;5022256;28;20052;-82
2022/08/31 09:12:29;;;;;;;1.05;0.80;;;29.40;67.60;;;;;;5022808;28;20458;-82
2022/08/31 09:14:58;;;;;;;0.63;0.43;;;28.80;68.30;;;;;;5024156;28;20036;-80
2022/08/31 09:17:42;;;;;;;1.23;0.43;;;29.30;69.60;;;;;;5024277;28;20427;-80
2022/08/31 09:20:12;;;;;;;1.08;0.60;;;29.80;68.80;;;;;;5002969;28;20045;-79
2022/08/31 09:22:49;;;;;;;0.40;0.20;;;30.10;68.50;;;;;;5026060;28;20049;-80
2022/08/31 09:25:27;;;;;;;1.80;0.85;;;30.30;68.20;;;;;;5008331;28;20132;-80
2022/08/31 09:27:56;;;;;;;0.88;0.57;;;30.60;66.20;;;;;;5021674;28;20099;-80
2022/08/31 09:30:38;;;;;;;0.68;0.38;;;30.60;68.00;;;;;;5011571;28;20045;-82
2022/08/31 09:33:04;;;;;;;3.17;0.60;;;31.30;67.40;;;;;;5010227;28;20033;-82
2022/08/31 09:35:40;;;;;;;0.88;0.55;;;32.10;68.00;;;;;;5005546;28;20094;-82
2022/08/31 09:38:15;;;;;;;0.40;0.40;;;32.30;67.30;;;;;;5005088;28;20055;-83
2022/08/31 09:40:46;;;;;;;0.85;0.40;;;32.40;67.30;;;;;;5023432;28;20095;-82
2022/08/31 09:43:14;;;;;;;0.50;0.50;;;32.30;68.10;;;;;;5021143;28;20056;-82
2022/08/31 09:46:01;;;;;;;1.38;0.50;;;31.90;64.80;;;;;;5004742;28;20045;-82
2022/08/31 09:48:57;;;;;;;9.25;0.60;;;30.90;65.70;;;;;;5004199;28;20158;-82
2022/08/31 09:51:31;;;;;;;;;;;30.80;67.20;;;;;;5020642;28;20060;-83
2022/08/31 09:56:57;;;;;;;1.85;0.60;;;29.00;68.50;;;;;;5021298;28;20044;-82
2022/08/31 09:59:36;;;;;;;1.77;0.65;;;28.40;68.50;;;;;;5024014;28;20049;-82
2022/08/31 10:02:06;;;;;;;1.83;0.65;;;28.10;69.40;;;;;;5023752;28;20072;-82
2022/08/31 10:04:36;;;;;;;0.85;0.30;;;27.90;68.40;;;;;;5007297;28;20047;-80
2022/08/31 10:07:23;;;;;;;0.43;0.30;;;27.80;69.80;;;;;;5028181;28;20049;-80
2022/08/31 10:09:56;;;;;;;0.57;0.50;;;27.90;72.10;;;;;;5031738;28;20045;-80
2022/08/31 10:12:42;;;;;;;0.93;0.50;;;28.10;69.60;;;;;;5004547;28;20045;-80
2022/08/31 10:15:43;;;;;;;0.65;0.57;;;28.20;69.50;;;;;;5024447;28;20825;-79
2022/08/31 10:18:38;;;;;;;0.30;0.30;;;28.50;69.00;;;;;;5027335;28;20038;-80
2022/08/31 10:21:19;;;;;;;0.88;0.57;;;29.90;67.70;;;;;;4983194;28;20659;-83
2022/08/31 10:24:09;;;;;;;0.30;0.30;;;29.90;66.40;;;;;;5021533;28;20099;-82
2022/08/31 10:26:41;;;;;;;0.70;0.50;;;30.30;66.00;;;;;;5011402;28;20072;-82
2022/08/31 10:29:23;;;;;;;0.70;0.28;;;30.60;68.00;;;;;;5018962;28;20568;-85
2022/08/31 10:31:53;;;;;;;0.95;0.45;;;30.20;65.20;;;;;;5010783;28;20133;-85
2022/08/31 10:37:18;;;;;;;0.45;0.45;;;29.80;66.30;;;;;;5026545;28;20061;-85
2022/08/31 10:39:53;;;;;;;1.58;0.63;;;30.50;67.70;;;;;;5023730;28;20037;-85
2022/08/31 10:42:36;;;;;;;0.30;0.20;;;30.10;65.30;;;;;;5023820;28;20040;-83
2022/08/31 10:45:09;;;;;;;0.77;0.30;;;30.30;64.30;;;;;;5030023;28;20053;-82
2022/08/31 10:47:43;;;;;;;0.55;0.30;;;31.30;65.50;;;;;;5032198;28;20048;-83
2022/08/31 10:50:15;;;;;;;0.82;0.40;;;31.10;65.10;;;;;;5024445;28;20079;-83
2022/08/31 10:52:55;;;;;;;3.20;0.38;;;31.50;64.00;;;;;;5029822;28;20045;-83
2022/08/31 10:55:42;;;;;;;0.50;0.50;;;31.00;63.40;;;;;;5025372;28;20399;-83
2022/08/31 10:58:26;;;;;;;2.33;0.60;;;30.50;64.00;;;;;;5024761;28;20036;-83
2022/08/31 11:01:01;;;;;;;3.45;0.88;;;31.30;66.50;;;;;;5030600;28;20052;-83
2022/08/31 11:04:04;;;;;;;0.20;0.20;;;30.60;64.30;;;;;;5024698;28;20472;-82
2022/08/31 11:06:36;;;;;;;1.30;0.45;;;30.50;65.50;;;;;;5023936;28;20052;-83
2022/08/31 11:09:08;;;;;;;0.63;0.30;;;30.80;65.10;;;;;;5026978;28;20091;-83
2022/08/31 11:11:50;;;;;;;0.68;0.45;;;30.40;65.50;;;;;;5026702;28;20029;-83
2022/08/31 11:14:43;;;;;;;1.08;0.70;;;30.60;66.50;;;;;;5019993;28;20120;-83
2022/08/31 11:17:36;;;;;;;3.13;0.65;;;30.50;65.40;;;;;;5026597;28;20045;-82
2022/08/31 11:20:24;;;;;;;0.63;0.38;;;30.90;65.90;;;;;;5018798;28;20038;-83
2022/08/31 11:23:18;;;;;;;0.88;0.55;;;31.80;65.50;;;;;;5022635;28;20457;-83
2022/08/31 11:25:50;;;;;;;0.43;0.38;;;32.60;65.50;;;;;;4983314;28;20706;-82
2022/08/31 11:28:38;;;;;;;0.63;0.52;;;32.90;63.90;;;;;;5018734;28;20115;-82
2022/08/31 11:31:27;;;;;;;0.55;0.50;;;32.50;64.10;;;;;;5026723;28;20076;-82
2022/08/31 11:33:56;;;;;;;0.98;0.50;;;31.80;65.20;;;;;;5023027;28;20045;-82
2022/08/31 11:36:40;;;;;;;0.70;0.47;;;31.50;66.20;;;;;;5026695;28;20044;-82
2022/08/31 11:39:05;;;;;;;0.40;0.40;;;31.60;65.20;;;;;;5000113;28;20048;-82
2022/08/31 11:41:37;;;;;;;4.22;0.88;;;31.30;64.30;;;;;;5009688;28;20037;-83
2022/08/31 11:44:06;;;;;;;1.70;0.60;;;30.60;66.50;;;;;;5028510;28;20486;-80
2022/08/31 11:46:40;;;;;;;0.45;0.38;;;30.40;65.50;;;;;;5025721;28;20083;-80
2022/08/31 11:49:09;;;;;;;3.00;0.65;;;30.80;68.30;;;;;;5006213;28;20049;-80
2022/08/31 11:51:41;;;;;;;0.63;0.38;;;30.90;66.60;;;;;;5026844;28;20677;-80
2022/08/31 11:54:25;;;;;;;2.03;0.50;;;30.70;65.90;;;;;;5005164;28;20040;-80
2022/08/31 11:56:55;;;;;;;0.73;0.47;;;30.80;65.50;;;;;;5009601;28;20068;-80
2022/08/31 11:59:28;;;;;;;0.55;0.40;;;30.80;66.40;;;;;;5026944;28;20502;-80
2022/08/31 12:01:59;;;;;;;1.20;0.57;;;30.90;65.70;;;;;;5017578;28;20159;-82
2022/08/31 12:04:45;;;;;;;1.55;0.50;;;30.80;64.70;;;;;;5025334;28;20083;-82
2022/08/31 12:07:23;;;;;;;1.27;0.50;;;30.00;65.90;;;;;;5008007;28;20044;-82
2022/08/31 12:10:13;;;;;;;0.68;0.43;;;29.40;67.70;;;;;;5016472;28;20038;-82
2022/08/31 12:12:42;;;;;;;0.73;0.50;;;29.30;66.70;;;;;;5021276;28;20152;-82
2022/08/31 12:15:41;;;;;;;0.50;0.43;;;28.90;67.70;;;;;;5025305;28;20033;-82
2022/08/31 12:18:44;;;;;;;0.57;0.40;;;29.10;67.90;;;;;;5021990;28;20124;-83
2022/08/31 12:24:41;;;;;;;1.40;0.73;;;28.70;67.50;;;;;;5026880;28;20391;-82
2022/08/31 12:27:13;;;;;;;0.43;0.35;;;28.90;67.50;;;;;;5022194;28;20067;-83
2022/08/31 12:29:40;;;;;;;0.63;0.60;;;29.50;67.20;;;;;;5007498;28;20053;-83
2022/08/31 12:32:11;;;;;;;1.77;0.77;;;29.10;68.80;;;;;;5021502;28;20387;-83
2022/08/31 12:34:43;;;;;;;1.42;0.55;;;29.40;67.20;;;;;;5019153;28;20095;-83
2022/08/31 12:37:24;;;;;;;0.60;0.40;;;29.10;67.80;;;;;;5006777;28;20053;-82
2022/08/31 12:40:07;;;;;;;1.38;0.43;;;28.70;67.20;;;;;;5017846;28;20049;-82
2022/08/31 12:42:35;;;;;;;0.45;0.25;;;28.40;66.60;;;;;;4979793;28;20042;-83
2022/08/31 12:45:02;;;;;;;0.52;0.45;;;28.30;67.80;;;;;;5015332;28;20061;-83
2022/08/31 12:47:51;;;;;;;0.55;0.32;;;28.60;66.60;;;;;;5000659;28;20044;-83
2022/08/31 12:50:42;;;;;;;0.68;0.40;;;28.50;66.70;;;;;;4988509;28;20176;-81
2022/08/31 12:53:11;;;;;;;0.30;0.30;;;28.80;69.30;;;;;;4988123;28;20083;-80
2022/08/31 12:55:50;;;;;;;0.25;0.15;;;28.90;67.50;;;;;;4998306;28;20140;-80
2022/08/31 12:58:53;;;;;;;0.30;0.30;;;29.20;66.60;;;;;;4997705;28;20517;-80
2022/08/31 13:01:22;;;;;;;1.52;0.60;;;29.30;68.00;;;;;;4998716;28;20072;-80
2022/08/31 13:03:52;;;;;;;0.45;0.20;;;29.40;65.70;;;;;;5015669;28;20357;-80
2022/08/31 13:06:30;;;;;;;0.63;0.28;;;29.40;66.90;;;;;;5016627;28;20049;-80
2022/08/31 13:08:57;;;;;;;0.30;0.30;;;29.50;65.70;;;;;;5015861;28;20041;-80
2022/08/31 13:11:30;;;;;;;0.32;0.20;;;29.40;65.20;;;;;;5017024;28;20450;-80
2022/08/31 13:14:19;;;;;;;0.68;0.57;;;29.40;66.70;;;;;;4999601;28;20037;-80
2022/08/31 13:17:10;;;;;;;1.17;0.50;;;29.20;65.40;;;;;;5016720;28;20042;-80
2022/08/31 13:19:36;;;;;;;0.38;0.38;;;29.10;64.30;;;;;;5015077;28;20048;-80
2022/08/31 13:22:04;;;;;;;0.73;0.50;;;28.80;67.10;;;;;;5016501;28;20064;-80
2022/08/31 13:24:36;;;;;;;0.52;0.40;;;28.80;67.40;;;;;;5000035;28;20091;-82
2022/08/31 13:27:11;;;;;;;0.40;0.30;;;28.60;66.00;;;;;;5016193;28;20030;-83